Time;durP1;ratioP1;P1;durP2;ratioP2;P2;SDS_P1;SDS_P2;PMS_P1;PMS_P2;Temp;Humidity;BMP_temperature;BMP_pressure;BME280_temperature;BME280_humidity;BME280_pressure;Samples;Min_cycle;Max_cycle;Signal;HPM_P1;HPM_P2
2023/08/21 00:00:53;;;;;;;3.93;2.00;;;;;;;;;;5029716;28;20311;-80
2023/08/21 00:03:19;;;;;;;3.78;1.98;;;;;;;;;;5046067;28;20279;-80
2023/08/21 00:05:44;;;;;;;3.50;1.90;;;;;;;;;;5046382;28;20025;-79
2023/08/21 00:08:10;;;;;;;4.50;2.00;;;;;;;;;;5045259;28;20044;-80
2023/08/21 00:10:37;;;;;;;5.40;2.10;;;;;;;;;;5044963;28;20272;-79
2023/08/21 00:13:02;;;;;;;3.40;1.90;;;;;;;;;;5045273;28;20296;-79
2023/08/21 00:15:27;;;;;;;3.40;2.00;;;;;;;;;;5044116;28;20033;-80
2023/08/21 00:17:53;;;;;;;8.98;2.47;;;;;;;;;;5030713;28;20038;-78
2023/08/21 00:20:18;;;;;;;3.47;2.07;;;;;;;;;;5045421;28;20063;-80
2023/08/21 00:22:43;;;;;;;4.45;1.80;;;;;;;;;;5045404;28;20345;-79
2023/08/21 00:25:09;;;;;;;7.60;2.40;;;;;;;;;;5045328;28;21096;-79
2023/08/21 00:27:34;;;;;;;3.17;1.87;;;;;;;;;;5037124;28;20039;-80
2023/08/21 00:30:00;;;;;;;4.50;2.30;;;;;;;;;;5044474;28;20280;-79
2023/08/21 00:32:25;;;;;;;6.22;2.08;;;;;;;;;;5044265;28;20284;-79
2023/08/21 00:34:50;;;;;;;4.33;2.07;;;;;;;;;;5043632;28;20037;-80
2023/08/21 00:37:15;;;;;;;4.38;2.58;;;;;;;;;;5024032;28;20297;-80
2023/08/21 00:39:41;;;;;;;4.17;2.17;;;;;;;;;;5044136;28;20034;-80
2023/08/21 00:42:07;;;;;;;3.50;1.95;;;;;;;;;;5043752;28;20362;-80
2023/08/21 00:44:32;;;;;;;6.35;2.45;;;;;;;;;;5034440;28;20029;-80
2023/08/21 00:46:57;;;;;;;3.65;2.10;;;;;;;;;;5043464;28;20121;-80
2023/08/21 00:49:23;;;;;;;5.25;2.13;;;;;;;;;;5041690;28;20193;-80
2023/08/21 00:51:49;;;;;;;6.75;2.55;;;;;;;;;;5041124;28;20030;-80
2023/08/21 00:54:15;;;;;;;4.53;2.03;;;;;;;;;;5041155;28;20022;-80
2023/08/21 00:56:40;;;;;;;5.95;2.03;;;;;;;;;;5040960;28;20052;-80
2023/08/21 00:59:06;;;;;;;5.95;2.50;;;;;;;;;;5019714;28;20028;-79
2023/08/21 01:01:32;;;;;;;6.57;2.63;;;;;;;;;;5026614;28;20089;-79
2023/08/21 01:03:58;;;;;;;4.82;1.85;;;;;;;;;;5041363;28;20492;-80
2023/08/21 01:06:23;;;;;;;4.47;2.00;;;;;;;;;;5041870;28;20072;-80
2023/08/21 01:09:04;;;;;;;3.42;2.08;;;;;;;;;;5031126;28;20288;-78
2023/08/21 01:11:39;;;;;;;4.15;2.38;;;;;;;;;;5041226;28;20103;-80
2023/08/21 01:14:16;;;;;;;5.03;2.45;;;;;;;;;;5040409;28;20029;-80
2023/08/21 01:16:43;;;;;;;4.53;2.05;;;;;;;;;;5037831;28;20500;-79
2023/08/21 01:19:12;;;;;;;4.30;2.53;;;;;;;;;;5031061;28;20511;-80
2023/08/21 01:21:38;;;;;;;4.68;2.25;;;;;;;;;;5040679;28;20056;-80
2023/08/21 01:24:03;;;;;;;6.13;2.35;;;;;;;;;;5038902;28;20746;-80
2023/08/21 01:26:28;;;;;;;4.32;2.45;;;;;;;;;;5039133;28;20037;-80
2023/08/21 01:28:53;;;;;;;4.47;2.58;;;;;;;;;;5038203;28;20421;-80
2023/08/21 01:31:23;;;;;;;3.80;2.20;;;;;;;;;;5039166;28;20107;-80
2023/08/21 01:33:52;;;;;;;3.67;1.98;;;;;;;;;;5030625;28;20103;-80
2023/08/21 01:36:17;;;;;;;4.63;2.47;;;;;;;;;;5038833;28;20030;-80
2023/08/21 01:38:43;;;;;;;5.88;2.15;;;;;;;;;;5022961;28;20452;-78
2023/08/21 01:41:10;;;;;;;4.53;2.63;;;;;;;;;;5030600;28;20026;-80
2023/08/21 01:43:36;;;;;;;3.90;2.07;;;;;;;;;;5039305;28;20029;-81
2023/08/21 01:46:02;;;;;;;5.93;2.10;;;;;;;;;;5041258;28;20272;-81
2023/08/21 01:48:27;;;;;;;6.32;2.15;;;;;;;;;;5041114;28;20033;-81
2023/08/21 01:50:52;;;;;;;3.90;2.20;;;;;;;;;;5038688;28;20132;-80
2023/08/21 01:53:17;;;;;;;4.97;2.13;;;;;;;;;;5040539;28;20505;-81
2023/08/21 01:55:43;;;;;;;4.10;2.08;;;;;;;;;;5039866;28;20045;-81
2023/08/21 01:58:08;;;;;;;6.18;2.60;;;;;;;;;;5039378;28;20018;-81
2023/08/21 02:00:33;;;;;;;5.40;2.22;;;;;;;;;;5018213;28;20026;-81
2023/08/21 02:02:59;;;;;;;4.57;2.23;;;;;;;;;;5022401;28;20029;-80
2023/08/21 02:05:24;;;;;;;4.33;2.13;;;;;;;;;;5040124;28;20295;-81
2023/08/21 02:07:49;;;;;;;5.53;2.00;;;;;;;;;;5040080;28;20295;-80
2023/08/21 02:10:14;;;;;;;6.50;2.63;;;;;;;;;;5037863;28;20407;-81
2023/08/21 02:12:40;;;;;;;7.97;2.38;;;;;;;;;;5029680;28;20276;-81
2023/08/21 02:15:05;;;;;;;5.15;2.33;;;;;;;;;;5004914;28;20052;-80
2023/08/21 02:17:32;;;;;;;5.43;2.58;;;;;;;;;;5029451;28;20030;-80
2023/08/21 02:19:58;;;;;;;4.15;2.00;;;;;;;;;;5037401;28;20025;-81
2023/08/21 02:22:23;;;;;;;4.07;2.37;;;;;;;;;;5040280;28;20032;-80
2023/08/21 02:24:48;;;;;;;5.75;2.25;;;;;;;;;;5030264;28;20279;-81
2023/08/21 02:27:13;;;;;;;3.27;2.17;;;;;;;;;;5032096;28;20064;-81
2023/08/21 02:29:39;;;;;;;5.57;2.17;;;;;;;;;;5030077;28;20291;-80
2023/08/21 02:32:04;;;;;;;3.40;1.90;;;;;;;;;;5017563;28;20033;-81
2023/08/21 02:34:29;;;;;;;4.60;2.45;;;;;;;;;;5028890;28;20359;-80
2023/08/21 02:36:54;;;;;;;7.10;2.20;;;;;;;;;;5040000;28;20033;-81
2023/08/21 02:39:20;;;;;;;5.60;2.10;;;;;;;;;;5039132;28;20029;-80
2023/08/21 02:41:45;;;;;;;3.38;2.00;;;;;;;;;;5039823;28;20500;-81
2023/08/21 02:44:10;;;;;;;3.25;1.92;;;;;;;;;;5039218;28;20026;-81
2023/08/21 02:46:36;;;;;;;3.72;1.70;;;;;;;;;;5040009;28;20029;-81
2023/08/21 02:49:03;;;;;;;4.78;2.38;;;;;;;;;;5028943;28;20076;-81
2023/08/21 02:51:28;;;;;;;5.43;2.40;;;;;;;;;;5039003;28;20029;-80
2023/08/21 02:53:53;;;;;;;3.90;2.20;;;;;;;;;;5021391;28;20061;-81
2023/08/21 02:56:19;;;;;;;4.45;2.30;;;;;;;;;;5036660;28;20332;-81
2023/08/21 02:58:44;;;;;;;4.70;2.33;;;;;;;;;;5037262;28;20088;-79
2023/08/21 03:01:09;;;;;;;8.23;2.20;;;;;;;;;;5027539;28;20029;-81
2023/08/21 03:03:35;;;;;;;4.13;2.17;;;;;;;;;;5037191;28;20061;-81
2023/08/21 03:06:01;;;;;;;4.05;2.30;;;;;;;;;;5036032;28;20117;-80
2023/08/21 03:08:26;;;;;;;3.70;2.20;;;;;;;;;;5027782;28;20577;-79
2023/08/21 03:10:52;;;;;;;7.65;3.20;;;;;;;;;;5034560;28;20167;-80
2023/08/21 03:13:18;;;;;;;7.55;2.25;;;;;;;;;;5037181;28;20029;-80
2023/08/21 03:15:43;;;;;;;7.75;2.40;;;;;;;;;;5037820;28;20030;-81
2023/08/21 03:18:08;;;;;;;3.92;2.25;;;;;;;;;;5037433;28;20035;-80
2023/08/21 03:20:33;;;;;;;4.93;2.38;;;;;;;;;;5027601;28;20113;-80
2023/08/21 03:22:59;;;;;;;7.90;2.55;;;;;;;;;;5020632;28;20396;-78
2023/08/21 03:25:24;;;;;;;5.72;2.33;;;;;;;;;;5032552;28;20025;-80
2023/08/21 03:27:50;;;;;;;6.47;2.78;;;;;;;;;;5026837;28;20025;-80
2023/08/21 03:30:15;;;;;;;6.30;2.53;;;;;;;;;;5020180;28;20033;-80
2023/08/21 03:32:40;;;;;;;6.30;2.90;;;;;;;;;;5034682;28;20030;-80
2023/08/21 03:35:05;;;;;;;4.97;2.03;;;;;;;;;;5036950;28;20025;-80
2023/08/21 03:37:31;;;;;;;5.63;2.53;;;;;;;;;;5037120;28;20034;-79
2023/08/21 03:39:56;;;;;;;5.53;2.42;;;;;;;;;;5033962;28;20456;-80
2023/08/21 03:42:21;;;;;;;5.47;2.55;;;;;;;;;;5017331;28;20018;-79
2023/08/21 03:44:49;;;;;;;4.20;2.53;;;;;;;;;;5026932;28;20084;-80
2023/08/21 03:47:15;;;;;;;6.63;4.18;;;;;;;;;;5035910;28;21133;-80
2023/08/21 03:49:51;;;;;;;8.50;3.58;;;;;;;;;;5023171;28;20395;-78
2023/08/21 03:52:18;;;;;;;6.65;3.40;;;;;;;;;;5039392;28;20026;-80
2023/08/21 03:54:44;;;;;;;4.50;2.97;;;;;;;;;;5040525;28;20384;-80
2023/08/21 03:57:09;;;;;;;7.03;2.88;;;;;;;;;;5024040;28;20038;-79
2023/08/21 03:59:34;;;;;;;5.90;2.70;;;;;;;;;;5038746;28;20025;-80
2023/08/21 04:02:00;;;;;;;5.78;2.78;;;;;;;;;;5021741;28;20029;-80
2023/08/21 04:04:25;;;;;;;7.18;3.35;;;;;;;;;;5039879;28;20071;-80
2023/08/21 04:06:50;;;;;;;4.88;2.70;;;;;;;;;;5023075;28;20037;-80
2023/08/21 04:09:15;;;;;;;5.27;2.67;;;;;;;;;;5039234;28;20033;-77
2023/08/21 04:11:41;;;;;;;6.00;2.90;;;;;;;;;;5024093;28;20280;-77
2023/08/21 04:14:06;;;;;;;4.22;2.72;;;;;;;;;;5036631;28;20280;-77
2023/08/21 04:16:31;;;;;;;5.63;2.73;;;;;;;;;;5036301;28;20044;-77
2023/08/21 04:18:56;;;;;;;4.13;2.72;;;;;;;;;;5019670;28;20278;-78
2023/08/21 04:21:22;;;;;;;6.35;2.88;;;;;;;;;;5038492;28;20034;-77
2023/08/21 04:23:47;;;;;;;5.68;2.60;;;;;;;;;;5038364;28;20033;-77
2023/08/21 04:26:13;;;;;;;6.75;3.22;;;;;;;;;;5035385;28;20033;-77
2023/08/21 04:28:38;;;;;;;4.50;2.55;;;;;;;;;;5035720;28;20488;-76
2023/08/21 04:31:06;;;;;;;5.40;2.95;;;;;;;;;;5015234;28;20030;-77
2023/08/21 04:33:33;;;;;;;4.18;2.20;;;;;;;;;;5024183;28;20565;-77
2023/08/21 04:35:59;;;;;;;5.05;2.67;;;;;;;;;;5024783;28;20045;-77
2023/08/21 04:38:24;;;;;;;7.97;3.60;;;;;;;;;;5036305;28;20025;-77
2023/08/21 04:40:49;;;;;;;6.13;3.25;;;;;;;;;;5019330;28;20090;-77
2023/08/21 04:43:15;;;;;;;4.38;3.13;;;;;;;;;;5027923;28;20033;-77
2023/08/21 04:45:52;;;;;;;7.28;3.22;;;;;;;;;;5035276;28;20026;-77
2023/08/21 04:48:19;;;;;;;8.52;3.05;;;;;;;;;;5016129;28;20035;-77
2023/08/21 04:50:46;;;;;;;6.57;3.03;;;;;;;;;;5026848;28;20528;-77
2023/08/21 04:53:12;;;;;;;5.22;3.10;;;;;;;;;;5018050;28;20033;-76
2023/08/21 04:55:42;;;;;;;4.07;2.60;;;;;;;;;;5017811;28;20025;-77
2023/08/21 04:58:08;;;;;;;5.28;2.70;;;;;;;;;;5016546;28;20081;-77
2023/08/21 05:00:33;;;;;;;7.40;2.80;;;;;;;;;;5036518;28;20053;-77
2023/08/21 05:02:58;;;;;;;7.82;3.00;;;;;;;;;;5022700;28;20037;-77
2023/08/21 05:05:24;;;;;;;4.05;2.90;;;;;;;;;;5039416;28;20060;-77
2023/08/21 05:07:52;;;;;;;5.60;2.80;;;;;;;;;;5022099;28;20022;-77
2023/08/21 05:10:17;;;;;;;7.63;3.13;;;;;;;;;;5039147;28;20033;-77
2023/08/21 05:12:43;;;;;;;5.75;2.60;;;;;;;;;;5022831;28;20040;-77
2023/08/21 05:15:09;;;;;;;6.45;2.97;;;;;;;;;;5024023;28;20029;-77
2023/08/21 05:17:34;;;;;;;5.80;3.13;;;;;;;;;;5040250;28;20171;-77
2023/08/21 05:19:59;;;;;;;7.43;3.40;;;;;;;;;;5038982;28;20381;-77
2023/08/21 05:22:25;;;;;;;8.02;3.50;;;;;;;;;;5039796;28;20017;-77
2023/08/21 05:24:50;;;;;;;5.90;3.55;;;;;;;;;;5019446;28;20025;-77
2023/08/21 05:27:15;;;;;;;6.68;3.75;;;;;;;;;;5015282;28;20381;-77
2023/08/21 05:29:40;;;;;;;6.55;4.10;;;;;;;;;;5019335;28;20056;-77
2023/08/21 05:32:06;;;;;;;7.40;4.25;;;;;;;;;;5021332;28;20038;-77
2023/08/21 05:34:31;;;;;;;8.83;4.37;;;;;;;;;;5029117;28;20456;-77
2023/08/21 05:36:56;;;;;;;9.05;5.88;;;;;;;;;;5038951;28;20306;-77
2023/08/21 05:39:22;;;;;;;7.68;4.47;;;;;;;;;;5037204;28;20472;-77
2023/08/21 05:41:48;;;;;;;6.70;4.55;;;;;;;;;;5021112;28;20060;-77
2023/08/21 05:44:14;;;;;;;10.40;7.18;;;;;;;;;;5020912;28;20026;-77
2023/08/21 05:46:39;;;;;;;9.88;6.35;;;;;;;;;;5021251;28;20041;-78
2023/08/21 05:49:05;;;;;;;6.25;5.40;;;;;;;;;;5020489;28;20032;-78
2023/08/21 05:51:30;;;;;;;9.50;7.65;;;;;;;;;;5040275;28;20056;-78
2023/08/21 05:53:56;;;;;;;11.68;10.18;;;;;;;;;;5040325;28;20032;-77
2023/08/21 05:56:21;;;;;;;10.18;8.90;;;;;;;;;;5038563;28;20033;-77
2023/08/21 05:58:47;;;;;;;9.70;8.45;;;;;;;;;;5018639;28;20036;-77
2023/08/21 06:01:12;;;;;;;10.95;9.30;;;;;;;;;;5021806;28;20101;-77
2023/08/21 06:03:38;;;;;;;12.32;9.80;;;;;;;;;;5022033;28;20025;-77
2023/08/21 06:06:21;;;;;;;12.50;11.00;;;;;;;;;;5028897;28;20060;-77
2023/08/21 06:08:48;;;;;;;12.65;11.35;;;;;;;;;;5039678;28;20026;-78
2023/08/21 06:11:14;;;;;;;14.65;10.88;;;;;;;;;;5042016;28;20047;-78
2023/08/21 06:13:39;;;;;;;12.13;10.70;;;;;;;;;;5023485;28;20060;-77
2023/08/21 06:16:05;;;;;;;12.50;10.30;;;;;;;;;;5022020;28;20026;-78
2023/08/21 06:18:32;;;;;;;12.75;11.43;;;;;;;;;;5033602;28;20026;-78
2023/08/21 06:20:57;;;;;;;13.52;12.05;;;;;;;;;;5040968;28;20022;-77
2023/08/21 06:23:22;;;;;;;12.85;10.90;;;;;;;;;;5022900;28;20527;-77
2023/08/21 06:25:48;;;;;;;13.30;9.88;;;;;;;;;;5041353;28;20033;-77
2023/08/21 06:28:13;;;;;;;10.25;7.85;;;;;;;;;;5038997;28;20483;-78
2023/08/21 06:30:38;;;;;;;12.07;9.07;;;;;;;;;;5040143;28;20030;-78
2023/08/21 06:33:04;;;;;;;13.50;8.15;;;;;;;;;;5025494;28;20283;-78
2023/08/21 06:35:29;;;;;;;9.02;8.02;;;;;;;;;;5027546;28;20567;-77
2023/08/21 06:37:54;;;;;;;11.07;9.73;;;;;;;;;;5040046;28;20029;-78
2023/08/21 06:40:20;;;;;;;12.48;11.18;;;;;;;;;;5025047;28;20268;-77
2023/08/21 06:42:46;;;;;;;12.65;11.35;;;;;;;;;;5033128;28;20093;-78
2023/08/21 06:45:12;;;;;;;13.70;12.07;;;;;;;;;;5027045;28;20021;-78
2023/08/21 06:47:37;;;;;;;14.88;13.10;;;;;;;;;;5040597;28;20072;-78
2023/08/21 06:50:04;;;;;;;13.90;10.50;;;;;;;;;;5022586;28;20032;-78
2023/08/21 06:52:29;;;;;;;9.40;7.88;;;;;;;;;;5040500;28;20029;-77
2023/08/21 06:54:54;;;;;;;9.30;8.40;;;;;;;;;;5040875;28;20029;-78
2023/08/21 06:57:19;;;;;;;14.13;8.43;;;;;;;;;;5041466;28;20292;-78
2023/08/21 06:59:45;;;;;;;12.15;10.20;;;;;;;;;;5039712;28;20682;-78
2023/08/21 07:02:10;;;;;;;12.07;10.65;;;;;;;;;;5040050;28;20064;-78
2023/08/21 07:04:35;;;;;;;12.85;10.00;;;;;;;;;;5036520;28;20033;-78
2023/08/21 07:07:01;;;;;;;12.43;10.88;;;;;;;;;;5041605;28;20029;-78
2023/08/21 07:09:26;;;;;;;10.73;9.10;;;;;;;;;;5039489;28;20025;-78
2023/08/21 07:11:51;;;;;;;10.33;7.80;;;;;;;;;;5036819;28;20052;-77
2023/08/21 07:14:17;;;;;;;9.50;7.50;;;;;;;;;;5040201;28;20291;-78
2023/08/21 07:16:42;;;;;;;8.77;6.75;;;;;;;;;;5041079;28;20089;-78
2023/08/21 07:19:07;;;;;;;12.50;6.93;;;;;;;;;;5039799;28;20491;-77
2023/08/21 07:21:35;;;;;;;8.93;8.03;;;;;;;;;;5043531;28;20033;-78
2023/08/21 07:24:00;;;;;;;9.48;8.48;;;;;;;;;;5043320;28;20276;-78
2023/08/21 07:26:25;;;;;;;11.32;10.15;;;;;;;;;;5041453;28;20048;-78
2023/08/21 07:28:52;;;;;;;12.53;9.50;;;;;;;;;;5044552;28;20037;-78
2023/08/21 07:31:18;;;;;;;8.48;6.85;;;;;;;;;;5044819;28;20280;-77
2023/08/21 07:33:43;;;;;;;6.70;5.28;;;;;;;;;;5046448;28;20120;-77
2023/08/21 07:36:08;;;;;;;7.23;5.07;;;;;;;;;;5028461;28;20033;-78
2023/08/21 07:38:33;;;;;;;8.98;7.60;;;;;;;;;;5027318;28;20295;-78
2023/08/21 07:41:10;;;;;;;10.77;9.30;;;;;;;;;;5026999;28;20021;-78
2023/08/21 07:43:35;;;;;;;7.30;5.25;;;;;;;;;;5047341;28;20052;-78
2023/08/21 07:46:09;;;;;;;7.43;5.72;;;;;;;;;;5044242;28;20037;-78
2023/08/21 07:48:35;;;;;;;8.43;5.55;;;;;;;;;;5043048;28;20072;-77
2023/08/21 07:51:00;;;;;;;6.85;5.00;;;;;;;;;;5044819;28;20037;-78
2023/08/21 07:53:26;;;;;;;7.32;4.60;;;;;;;;;;5044500;28;20044;-78
2023/08/21 07:55:51;;;;;;;7.70;5.22;;;;;;;;;;5045393;28;20065;-78
2023/08/21 07:58:17;;;;;;;6.75;5.10;;;;;;;;;;5035827;28;20483;-77
2023/08/21 08:00:45;;;;;;;8.75;5.38;;;;;;;;;;5032636;28;20037;-78
2023/08/21 08:03:10;;;;;;;6.53;4.70;;;;;;;;;;5044431;28;20515;-77
2023/08/21 08:05:36;;;;;;;6.47;4.68;;;;;;;;;;5035177;28;20029;-78
2023/08/21 08:08:01;;;;;;;7.13;5.13;;;;;;;;;;5043749;28;20029;-78
2023/08/21 08:10:26;;;;;;;5.43;4.25;;;;;;;;;;5038748;28;20029;-78
2023/08/21 08:12:53;;;;;;;6.22;4.47;;;;;;;;;;5043529;28;20108;-78
2023/08/21 08:15:18;;;;;;;5.32;4.28;;;;;;;;;;5044243;28;20025;-78
2023/08/21 08:17:45;;;;;;;8.50;4.43;;;;;;;;;;5036572;28;20089;-78
2023/08/21 08:20:11;;;;;;;6.35;4.65;;;;;;;;;;5043729;28;20029;-78
2023/08/21 08:22:36;;;;;;;6.78;4.70;;;;;;;;;;5044170;28;20081;-78
2023/08/21 08:25:01;;;;;;;6.90;4.37;;;;;;;;;;5037140;28;20035;-78
2023/08/21 08:27:27;;;;;;;7.32;5.15;;;;;;;;;;5044431;28;20805;-77
2023/08/21 08:29:52;;;;;;;6.13;4.97;;;;;;;;;;5023087;28;20040;-78
2023/08/21 08:32:17;;;;;;;6.55;5.47;;;;;;;;;;5040644;28;20379;-78
2023/08/21 08:34:46;;;;;;;9.47;6.83;;;;;;;;;;5042845;28;20075;-78
2023/08/21 08:37:11;;;;;;;7.32;5.35;;;;;;;;;;5042693;28;20667;-78
2023/08/21 08:39:36;;;;;;;9.10;5.50;;;;;;;;;;5023899;28;20033;-78
2023/08/21 08:42:03;;;;;;;7.87;5.60;;;;;;;;;;5040426;28;20037;-78
2023/08/21 08:44:29;;;;;;;5.80;4.30;;;;;;;;;;5041458;28;20308;-78
2023/08/21 08:46:55;;;;;;;8.02;5.60;;;;;;;;;;5043263;28;20052;-78
2023/08/21 08:49:21;;;;;;;7.25;4.93;;;;;;;;;;5042581;28;20037;-78
2023/08/21 08:51:48;;;;;;;7.20;5.13;;;;;;;;;;5042974;28;20120;-78
2023/08/21 08:54:14;;;;;;;6.32;4.40;;;;;;;;;;5043027;28;20101;-78
2023/08/21 08:56:39;;;;;;;6.82;4.53;;;;;;;;;;5041511;28;20061;-77
2023/08/21 08:59:05;;;;;;;5.32;4.20;;;;;;;;;;5027721;28;20032;-78
2023/08/21 09:01:31;;;;;;;8.98;4.82;;;;;;;;;;5041072;28;20435;-78
2023/08/21 09:03:56;;;;;;;6.45;4.53;;;;;;;;;;5040956;28;20040;-77
2023/08/21 09:06:21;;;;;;;7.43;5.40;;;;;;;;;;5043019;28;20036;-78
2023/08/21 09:08:56;;;;;;;8.53;5.60;;;;;;;;;;5041937;28;20145;-78
2023/08/21 09:11:21;;;;;;;8.98;5.97;;;;;;;;;;5042586;28;20927;-78
2023/08/21 09:13:50;;;;;;;9.48;6.10;;;;;;;;;;5040528;28;20030;-78
2023/08/21 09:16:16;;;;;;;8.85;6.03;;;;;;;;;;5042807;28;20060;-77
2023/08/21 09:18:48;;;;;;;8.40;5.55;;;;;;;;;;5042930;28;20029;-77
2023/08/21 09:21:17;;;;;;;8.88;6.03;;;;;;;;;;5025742;28;20049;-77
2023/08/21 09:23:43;;;;;;;8.30;5.57;;;;;;;;;;5033231;28;20025;-77
2023/08/21 09:26:09;;;;;;;7.82;6.55;;;;;;;;;;5033373;28;20035;-78
2023/08/21 09:28:34;;;;;;;7.93;6.03;;;;;;;;;;5041556;28;20029;-77
2023/08/21 09:31:00;;;;;;;7.60;6.22;;;;;;;;;;5042356;28;20286;-78
2023/08/21 09:33:25;;;;;;;8.85;6.53;;;;;;;;;;5041199;28;20140;-77
2023/08/21 09:35:51;;;;;;;6.88;6.18;;;;;;;;;;5041377;28;20120;-77
2023/08/21 09:38:18;;;;;;;6.85;6.15;;;;;;;;;;5032261;28;20099;-78
2023/08/21 09:40:51;;;;;;;8.85;6.63;;;;;;;;;;5041059;28;20092;-78
2023/08/21 09:43:16;;;;;;;7.75;6.95;;;;;;;;;;5042142;28;20033;-78
2023/08/21 09:45:45;;;;;;;7.50;6.63;;;;;;;;;;5023912;28;20412;-78
2023/08/21 09:48:10;;;;;;;7.85;6.70;;;;;;;;;;5041960;28;20417;-78
2023/08/21 09:50:36;;;;;;;9.30;6.30;;;;;;;;;;5041910;28;20025;-78
2023/08/21 09:53:01;;;;;;;8.98;5.35;;;;;;;;;;5024566;28;20037;-78
2023/08/21 09:55:29;;;;;;;8.60;4.25;;;;;;;;;;5024390;28;20044;-78
2023/08/21 09:57:58;;;;;;;6.78;3.92;;;;;;;;;;5038406;28;20029;-77
2023/08/21 10:00:28;;;;;;;5.00;3.80;;;;;;;;;;5039147;28;20547;-78
2023/08/21 10:02:54;;;;;;;6.20;3.92;;;;;;;;;;5037900;28;20037;-78
2023/08/21 10:05:19;;;;;;;6.95;3.70;;;;;;;;;;5032311;28;20036;-77
2023/08/21 10:07:48;;;;;;;6.07;4.18;;;;;;;;;;5031480;28;20033;-77
2023/08/21 10:10:14;;;;;;;4.28;3.15;;;;;;;;;;5031193;28;20033;-77
2023/08/21 10:12:39;;;;;;;6.93;3.50;;;;;;;;;;5031448;28;20021;-76
2023/08/21 10:15:07;;;;;;;6.07;2.90;;;;;;;;;;5031794;28;20037;-77
2023/08/21 10:17:32;;;;;;;8.70;3.63;;;;;;;;;;5031366;28;20319;-77
2023/08/21 10:20:02;;;;;;;6.55;3.47;;;;;;;;;;5031120;28;20451;-76
2023/08/21 10:22:47;;;;;;;6.43;3.63;;;;;;;;;;5031386;28;20037;-77
2023/08/21 10:25:16;;;;;;;5.47;3.70;;;;;;;;;;5029753;28;20026;-77
2023/08/21 10:27:42;;;;;;;4.22;2.58;;;;;;;;;;5031397;28;20039;-77
2023/08/21 10:30:15;;;;;;;4.85;3.72;;;;;;;;;;5030285;28;20056;-76
2023/08/21 10:32:44;;;;;;;4.70;3.05;;;;;;;;;;5013786;28;20037;-77
2023/08/21 10:35:13;;;;;;;6.93;3.28;;;;;;;;;;5028039;28;20136;-76
2023/08/21 10:37:58;;;;;;;5.38;2.72;;;;;;;;;;5031417;28;20369;-77
2023/08/21 10:40:24;;;;;;;6.28;3.10;;;;;;;;;;5021529;28;20508;-77
2023/08/21 10:42:49;;;;;;;4.35;3.08;;;;;;;;;;5022354;28;20448;-77
2023/08/21 10:45:14;;;;;;;6.40;3.47;;;;;;;;;;5031133;28;20026;-77
2023/08/21 10:47:39;;;;;;;6.75;3.45;;;;;;;;;;5017035;28;20036;-76
2023/08/21 10:50:08;;;;;;;5.85;3.42;;;;;;;;;;5031265;28;20052;-77
2023/08/21 10:52:36;;;;;;;5.90;2.95;;;;;;;;;;5030777;28;20496;-77
2023/08/21 10:55:03;;;;;;;6.55;3.40;;;;;;;;;;5030258;28;20064;-77
2023/08/21 10:57:29;;;;;;;6.15;3.20;;;;;;;;;;5023747;28;20112;-76
2023/08/21 10:59:58;;;;;;;4.90;3.45;;;;;;;;;;5034169;28;20026;-75
2023/08/21 11:02:25;;;;;;;4.22;2.70;;;;;;;;;;5030532;28;20515;-75
2023/08/21 11:04:51;;;;;;;4.88;2.90;;;;;;;;;;5028814;28;20445;-74
2023/08/21 11:07:16;;;;;;;6.45;3.90;;;;;;;;;;5030639;28;20060;-74
2023/08/21 11:09:42;;;;;;;5.30;3.40;;;;;;;;;;5030145;28;20065;-74
2023/08/21 11:12:12;;;;;;;7.35;3.30;;;;;;;;;;5029620;28;20068;-75
2023/08/21 11:14:38;;;;;;;4.72;3.42;;;;;;;;;;5029458;28;20041;-75
2023/08/21 11:17:03;;;;;;;6.82;3.85;;;;;;;;;;5030566;28;20071;-75
2023/08/21 11:19:32;;;;;;;6.78;4.10;;;;;;;;;;5030205;28;20068;-75
2023/08/21 11:21:59;;;;;;;7.93;4.60;;;;;;;;;;5023803;28;20021;-75
2023/08/21 11:24:29;;;;;;;7.32;4.90;;;;;;;;;;5012221;28;20644;-75
2023/08/21 11:26:54;;;;;;;5.68;4.47;;;;;;;;;;5030408;28;20040;-75
2023/08/21 11:29:20;;;;;;;6.82;4.22;;;;;;;;;;5030640;28;20033;-75
2023/08/21 11:31:47;;;;;;;5.38;4.00;;;;;;;;;;5032816;28;20030;-75
2023/08/21 11:34:18;;;;;;;7.97;6.60;;;;;;;;;;5030302;28;20038;-75
2023/08/21 11:36:43;;;;;;;6.35;4.30;;;;;;;;;;5029097;28;20044;-75
2023/08/21 11:39:08;;;;;;;6.93;4.70;;;;;;;;;;5012703;28;20034;-79
2023/08/21 11:41:52;;;;;;;9.73;4.30;;;;;;;;;;5029262;28;20639;-76
2023/08/21 11:44:17;;;;;;;6.00;3.90;;;;;;;;;;5028176;28;20159;-77
2023/08/21 11:46:42;;;;;;;6.60;5.00;;;;;;;;;;5030197;28;20116;-77
2023/08/21 11:49:07;;;;;;;5.80;4.87;;;;;;;;;;5012052;28;20762;-76
2023/08/21 11:51:37;;;;;;;5.85;3.75;;;;;;;;;;5030353;28;20029;-76
2023/08/21 11:54:03;;;;;;;8.15;4.22;;;;;;;;;;5030647;28;20033;-77
2023/08/21 11:56:29;;;;;;;5.72;3.97;;;;;;;;;;5030805;28;20125;-77
2023/08/21 11:58:54;;;;;;;4.60;3.17;;;;;;;;;;5029945;28;20187;-77
2023/08/21 12:01:20;;;;;;;5.83;3.40;;;;;;;;;;5031363;28;20377;-76
2023/08/21 12:03:45;;;;;;;4.93;3.63;;;;;;;;;;5030200;28;20033;-76
2023/08/21 12:06:11;;;;;;;5.25;3.50;;;;;;;;;;5031130;28;20904;-76
2023/08/21 12:08:37;;;;;;;6.22;3.40;;;;;;;;;;5034087;28;20470;-77
2023/08/21 12:11:02;;;;;;;8.68;5.25;;;;;;;;;;5032306;28;20726;-76
2023/08/21 12:13:27;;;;;;;4.20;3.47;;;;;;;;;;5033304;28;20120;-75
2023/08/21 12:15:53;;;;;;;7.95;3.90;;;;;;;;;;5033149;28;20411;-76
2023/08/21 12:18:18;;;;;;;6.57;4.70;;;;;;;;;;5033000;28;20025;-76
2023/08/21 12:20:43;;;;;;;5.40;3.93;;;;;;;;;;5032829;28;20033;-77
2023/08/21 12:23:08;;;;;;;6.30;4.07;;;;;;;;;;5034034;28;20276;-77
2023/08/21 12:25:33;;;;;;;8.87;4.33;;;;;;;;;;5034003;28;20025;-77
2023/08/21 12:27:59;;;;;;;10.33;5.20;;;;;;;;;;5033166;28;20036;-77
2023/08/21 12:30:24;;;;;;;5.43;4.53;;;;;;;;;;5033954;28;20334;-77
2023/08/21 12:32:50;;;;;;;6.80;6.05;;;;;;;;;;5034165;28;20044;-77
2023/08/21 12:35:15;;;;;;;6.60;3.73;;;;;;;;;;5034102;28;20137;-77
2023/08/21 12:37:40;;;;;;;4.50;3.13;;;;;;;;;;5033535;28;20299;-76
2023/08/21 12:40:06;;;;;;;6.83;3.47;;;;;;;;;;5032994;28;20022;-77
2023/08/21 12:42:31;;;;;;;6.18;3.33;;;;;;;;;;5033112;28;20037;-77
2023/08/21 12:44:57;;;;;;;5.53;3.30;;;;;;;;;;5033701;28;20032;-76
2023/08/21 12:47:22;;;;;;;4.10;2.87;;;;;;;;;;5033354;28;20043;-75
2023/08/21 12:49:47;;;;;;;4.13;2.73;;;;;;;;;;5032729;28;20029;-77
2023/08/21 12:52:12;;;;;;;4.70;2.63;;;;;;;;;;5019326;28;20393;-77
2023/08/21 12:54:38;;;;;;;4.77;2.87;;;;;;;;;;5033174;28;20352;-77
2023/08/21 12:57:04;;;;;;;4.28;2.85;;;;;;;;;;5033398;28;20029;-77
2023/08/21 12:59:29;;;;;;;6.50;3.03;;;;;;;;;;5034404;28;20408;-77
2023/08/21 13:01:54;;;;;;;4.57;2.90;;;;;;;;;;5033190;28;20037;-77
2023/08/21 13:04:19;;;;;;;4.47;2.40;;;;;;;;;;5033894;28;20041;-77
2023/08/21 13:06:44;;;;;;;3.92;2.50;;;;;;;;;;5033328;28;20411;-76
2023/08/21 13:09:10;;;;;;;4.00;2.60;;;;;;;;;;5028157;28;20044;-77
2023/08/21 13:11:35;;;;;;;4.97;2.80;;;;;;;;;;5033724;28;20287;-76
2023/08/21 13:14:00;;;;;;;5.73;3.00;;;;;;;;;;5034971;28;20037;-80
2023/08/21 13:16:25;;;;;;;4.10;2.63;;;;;;;;;;5033989;28;20026;-80
2023/08/21 13:18:50;;;;;;;4.50;2.30;;;;;;;;;;5034802;28;20302;-80
2023/08/21 13:21:16;;;;;;;4.07;2.00;;;;;;;;;;5035395;28;20447;-81
2023/08/21 13:23:41;;;;;;;3.63;2.27;;;;;;;;;;5036054;28;20117;-80
2023/08/21 13:26:06;;;;;;;3.20;2.10;;;;;;;;;;5035936;28;20812;-81
2023/08/21 13:28:32;;;;;;;4.40;2.77;;;;;;;;;;5035906;28;20029;-80
2023/08/21 13:30:58;;;;;;;4.90;2.75;;;;;;;;;;5035899;28;20025;-79
2023/08/21 13:33:23;;;;;;;4.80;3.08;;;;;;;;;;5035395;28;20036;-80
2023/08/21 13:35:48;;;;;;;5.38;2.47;;;;;;;;;;5035445;28;20044;-81
2023/08/21 13:38:13;;;;;;;4.47;2.70;;;;;;;;;;5018745;28;20057;-80
2023/08/21 13:40:40;;;;;;;4.33;2.50;;;;;;;;;;5025623;28;20068;-81
2023/08/21 13:43:07;;;;;;;4.25;2.47;;;;;;;;;;5026352;28;20115;-78
2023/08/21 13:45:32;;;;;;;6.10;2.50;;;;;;;;;;5033661;28;20030;-80
2023/08/21 13:47:57;;;;;;;3.47;2.33;;;;;;;;;;5026454;28;20044;-79
2023/08/21 13:50:22;;;;;;;6.33;4.30;;;;;;;;;;5035072;28;20276;-81
2023/08/21 13:52:47;;;;;;;5.07;2.70;;;;;;;;;;5033572;28;20040;-80
2023/08/21 13:55:13;;;;;;;3.50;2.63;;;;;;;;;;5026133;28;20041;-80
2023/08/21 13:57:38;;;;;;;3.45;2.47;;;;;;;;;;5035600;28;20037;-80
2023/08/21 14:00:07;;;;;;;3.53;2.47;;;;;;;;;;5033597;28;20060;-80
2023/08/21 14:02:33;;;;;;;4.43;2.13;;;;;;;;;;5019048;28;20324;-80
2023/08/21 14:04:58;;;;;;;5.43;4.70;;;;;;;;;;5034198;28;20029;-80
2023/08/21 14:07:23;;;;;;;6.30;4.43;;;;;;;;;;5030121;28;20034;-80
2023/08/21 14:09:48;;;;;;;3.37;2.27;;;;;;;;;;5033967;28;20766;-81
2023/08/21 14:12:14;;;;;;;5.88;3.10;;;;;;;;;;5034358;28;20522;-79
2023/08/21 14:14:39;;;;;;;4.77;2.43;;;;;;;;;;5034887;28;20029;-80
2023/08/21 14:17:04;;;;;;;4.93;2.27;;;;;;;;;;5034553;28;20484;-79
2023/08/21 14:19:30;;;;;;;5.10;2.30;;;;;;;;;;5032980;28;20295;-80
2023/08/21 14:21:55;;;;;;;3.63;2.28;;;;;;;;;;5032902;28;20057;-81
2023/08/21 14:24:20;;;;;;;5.23;2.13;;;;;;;;;;5034645;28;20025;-80
2023/08/21 14:26:45;;;;;;;3.87;2.40;;;;;;;;;;5034555;28;20033;-80
2023/08/21 14:29:11;;;;;;;4.70;2.17;;;;;;;;;;5033877;28;20030;-80
2023/08/21 14:31:36;;;;;;;3.40;2.13;;;;;;;;;;5037379;28;20033;-80
2023/08/21 14:34:01;;;;;;;4.20;2.10;;;;;;;;;;5034850;28;20038;-80